GCRR/ACE METAR and TAF weather

Enter ICAO airport designator
Station Type Date Time Source
GCRR METAR 2019/12/06 04:00 UTC NOAA

GCRR 060400Z AUTO 34006KT 9999 NCD 16/13 Q1013


Station Type Date Time Source
GCRR Decoded METAR 2019/12/06 04:00 UTC NOAA

Lanzarote / Aeropuerto, Spain (GCRR) 28-57N 013-36W 21M
Dec 05, 2019 - 11:00 PM EST / 2019.12.06 0400 UTC
Wind: from the NNW (340 degrees) at 7 MPH (6 KT):0
Visibility: greater than 7 mile(s):0
Temperature: 60 F (16 C)
Dew Point: 55 F (13 C)
Relative Humidity: 82%
Pressure (altimeter): 29.91 in. Hg (1013 hPa)
ob: GCRR 060400Z AUTO 34006KT 9999 NCD 16/13 Q1013
cycle: 4

Station Type Date Time Source
GCRR TAF 2019/12/06 03:27 UTC NOAA

TAF GCRR 060200Z 0603/0703 36013KT 9999 SCT030 TX22/0615Z TN15/0606Z PROB40
TEMPO 0603/0612 RA

Example: see airport list